CheckWX is a tool to help pilots better visualize weather data.  It is not intended as a substitute for an official pre-flight weather briefing.

05:47:58 UTC

0A9 METAR
Elizabethton Municipal Airport
Elizabethton, Tennessee, USA
Current

33 mins ago

K0A9 240515Z AUTO 01003KT 7SM -RA 13/12 A2985 RMK AO2
Observed
Feb-24 @ 05:15 UTC
Wind
  • 010° at 3 KTS
Visibility
7 SM
Conditions
Light Rain
Temperature
13°C / 55°F
Dewpoint
12°C / 54°F
Humidity
94%
Altimeter
29.85" Hg
Pressure
1010.82 hPa
Previous

53 mins ago

K0A9 240455Z AUTO VRB04KT 10SM OVC075 13/12 A2984 RMK AO2
Observed
Feb-24 @ 04:55 UTC
Wind
  • Variable at 4 KTS
Visibility
10 SM
Flight Rules
VFR
Cloud Levels
  • Overcast at 7,500' AGL
Temperature
13°C / 55°F
Dewpoint
12°C / 54°F
Humidity
94%
Altimeter
29.84" Hg
Pressure
1010.52 hPa
Previous

1 hour ago

K0A9 240435Z AUTO VRB04KT 10SM FEW055 BKN075 OVC090 12/12 A2986 RMK AO2
Observed
Feb-24 @ 04:35 UTC
Wind
  • Variable at 4 KTS
Visibility
10 SM
Flight Rules
VFR
Cloud Levels
  • Few at 5,500' AGL
  • Broken at 7,500' AGL
  • Overcast at 9,000' AGL
Temperature
12°C / 54°F
Dewpoint
12°C / 54°F
Humidity
100%
Altimeter
29.86" Hg
Pressure
1011.22 hPa